createdAt,value
2022-09-28T00:00:29.662Z,98.53
2022-09-28T00:01:29.697Z,98.33
2022-09-28T00:02:29.722Z,98.07
2022-09-28T00:03:29.662Z,98.28
2022-09-28T00:04:29.628Z,98.43
2022-09-28T00:05:29.618Z,98.38
2022-09-28T00:06:29.626Z,98.38
2022-09-28T00:07:29.608Z,97.77
2022-09-28T00:08:29.622Z,97.97
2022-09-28T00:09:29.590Z,97.77
2022-09-28T00:10:29.583Z,97.56
2022-09-28T00:11:29.585Z,97.45
2022-09-28T00:12:29.567Z,97.36
2022-09-28T00:13:29.585Z,97.36
2022-09-28T00:14:29.557Z,97.36
2022-09-28T00:15:29.546Z,97.31
2022-09-28T00:16:29.590Z,97.15
2022-09-28T00:17:29.541Z,97.15
2022-09-28T00:18:29.550Z,96.80
2022-09-28T00:19:29.515Z,96.73
2022-09-28T00:20:29.510Z,96.80
2022-09-28T00:21:29.503Z,96.59
2022-09-28T00:22:29.500Z,96.48
2022-09-28T00:23:29.512Z,96.59
2022-09-28T00:24:29.485Z,96.59
2022-09-28T00:25:29.468Z,96.59
2022-09-28T00:26:29.461Z,96.28
2022-09-28T00:27:29.452Z,96.28
2022-09-28T00:28:29.480Z,96.08
2022-09-28T00:29:29.440Z,95.97
2022-09-28T00:30:29.433Z,96.18
2022-09-28T00:31:29.521Z,96.18
2022-09-28T00:32:29.432Z,96.48
2022-09-28T00:33:29.439Z,96.18
2022-09-28T00:34:29.403Z,96.59
2022-09-28T00:35:29.394Z,96.18
2022-09-28T00:36:29.411Z,96.48
2022-09-28T00:37:29.378Z,96.08
2022-09-28T00:38:29.404Z,95.97
2022-09-28T00:39:29.367Z,96.28
2022-09-28T00:40:29.410Z,96.18
2022-09-28T00:41:29.347Z,96.08
2022-09-28T00:42:29.339Z,95.77
2022-09-28T00:43:29.337Z,96.18
2022-09-28T00:44:29.352Z,96.28
2022-09-28T00:45:29.373Z,96.28
2022-09-28T00:46:29.311Z,96.28
2022-09-28T00:47:29.303Z,95.31
2022-09-28T00:48:29.292Z,95.77
2022-09-28T00:49:29.316Z,96.39
2022-09-28T00:50:29.279Z,95.77
2022-09-28T00:51:29.271Z,96.39
2022-09-28T00:52:29.264Z,95.97
2022-09-28T00:53:29.263Z,95.67
2022-09-28T00:54:29.274Z,95.87
2022-09-28T00:55:29.261Z,95.72
2022-09-28T00:56:29.276Z,95.83
2022-09-28T00:57:29.229Z,95.77
2022-09-28T00:58:29.342Z,95.77
2022-09-28T00:59:29.251Z,95.67
2022-09-28T01:00:29.229Z,96.39
2022-09-28T01:01:29.203Z,96.18
2022-09-28T01:02:29.254Z,96.39
2022-09-28T01:03:29.176Z,96.23
2022-09-28T01:04:30.046Z,95.83
2022-09-28T01:05:30.164Z,96.55
2022-09-28T01:06:29.155Z,96.44
2022-09-28T01:07:29.154Z,96.34
2022-09-28T01:08:29.138Z,95.67
2022-09-28T01:09:29.165Z,96.18
2022-09-28T01:10:29.119Z,96.48
2022-09-28T01:11:29.116Z,96.44
2022-09-28T01:12:29.102Z,96.23
2022-09-28T01:13:29.106Z,96.34
2022-09-28T01:14:29.117Z,96.23
2022-09-28T01:15:29.085Z,96.44
2022-09-28T01:16:29.122Z,95.67
2022-09-28T01:17:29.070Z,95.52
2022-09-28T01:18:29.056Z,95.77
2022-09-28T01:19:29.078Z,95.72
2022-09-28T01:20:29.050Z,96.14
2022-09-28T01:21:29.043Z,95.52
2022-09-28T01:22:29.028Z,96.34
2022-09-28T01:23:29.023Z,96.34
2022-09-28T01:24:29.038Z,96.69
2022-09-28T01:25:29.009Z,96.28
2022-09-28T01:26:29.008Z,96.03
2022-09-28T01:27:28.993Z,95.87
2022-09-28T01:28:28.997Z,95.46
2022-09-28T01:29:29.006Z,96.28
2022-09-28T01:30:28.966Z,96.48
2022-09-28T01:31:29.050Z,96.28
2022-09-28T01:32:28.956Z,96.59
2022-09-28T01:33:28.951Z,96.39
2022-09-28T01:34:28.961Z,96.28
2022-09-28T01:35:28.939Z,95.87
2022-09-28T01:36:28.928Z,95.56
2022-09-28T01:37:28.916Z,96.08
2022-09-28T01:38:28.911Z,96.18
2022-09-28T01:39:28.929Z,96.08
2022-09-28T01:40:28.928Z,95.87
2022-09-28T01:41:28.891Z,95.77
2022-09-28T01:42:28.880Z,95.62
2022-09-28T01:43:28.872Z,95.87
2022-09-28T01:44:28.904Z,96.08
2022-09-28T01:45:28.941Z,95.83
2022-09-28T01:46:28.854Z,95.62
2022-09-28T01:47:28.843Z,95.42
2022-09-28T01:48:28.840Z,96.03
2022-09-28T01:49:28.847Z,95.52
2022-09-28T01:50:28.823Z,96.55
2022-09-28T01:51:28.812Z,96.23
2022-09-28T01:52:28.817Z,95.72
2022-09-28T01:53:28.811Z,96.14
2022-09-28T01:54:28.816Z,95.62
2022-09-28T01:55:28.779Z,95.93
2022-09-28T01:56:28.773Z,96.44
2022-09-28T01:57:28.764Z,96.14
2022-09-28T01:58:28.768Z,96.34
2022-09-28T01:59:28.774Z,96.34
2022-09-28T02:00:28.795Z,96.34
2022-09-28T02:01:28.738Z,96.34
2022-09-28T02:02:28.863Z,96.65
2022-09-28T02:03:28.717Z,96.55
2022-09-28T02:04:28.758Z,96.55
2022-09-28T02:05:28.703Z,96.55
2022-09-28T02:06:28.698Z,96.75
2022-09-28T02:07:28.687Z,96.95
2022-09-28T02:08:28.683Z,96.85
2022-09-28T02:09:33.563Z,97.27
2022-09-28T02:10:30.665Z,96.90
2022-09-28T02:11:28.658Z,97.20
2022-09-28T02:12:28.649Z,97.20
2022-09-28T02:13:28.646Z,97.31
2022-09-28T02:14:28.660Z,97.62
2022-09-28T02:15:28.627Z,97.41
2022-09-28T02:16:28.715Z,97.16
2022-09-28T02:17:28.614Z,97.06
2022-09-28T02:18:28.608Z,97.27
2022-09-28T02:19:28.624Z,97.41
2022-09-28T02:20:28.593Z,97.52
2022-09-28T02:21:28.582Z,97.41
2022-09-28T02:22:28.579Z,97.41
2022-09-28T02:23:28.571Z,97.41
2022-09-28T02:24:28.587Z,97.72
2022-09-28T02:25:28.553Z,97.62
2022-09-28T02:26:28.549Z,98.24
2022-09-28T02:27:28.538Z,98.13
2022-09-28T02:28:28.536Z,98.24
2022-09-28T02:29:28.551Z,98.03
2022-09-28T02:30:28.524Z,98.24
2022-09-28T02:31:28.580Z,97.82
2022-09-28T02:32:28.505Z,98.24
2022-09-28T02:33:28.502Z,98.85
2022-09-28T02:34:28.517Z,98.24
2022-09-28T02:35:28.479Z,98.65
2022-09-28T02:36:28.495Z,98.65
2022-09-28T02:37:28.464Z,98.54
2022-09-28T02:38:28.459Z,98.75
2022-09-28T02:39:28.475Z,98.54
2022-09-28T02:40:28.493Z,98.44
2022-09-28T02:41:28.441Z,98.54
2022-09-28T02:42:28.434Z,99.05
2022-09-28T02:43:28.420Z,99.16
2022-09-28T02:44:28.434Z,98.96
2022-09-28T02:45:28.432Z,99.05
2022-09-28T02:46:28.401Z,99.05
2022-09-28T02:47:28.392Z,98.65
2022-09-28T02:48:43.008Z,98.65
2022-09-28T02:49:30.542Z,99.00
2022-09-28T02:50:28.367Z,98.85
2022-09-28T02:51:28.370Z,98.96
2022-09-28T02:52:28.349Z,98.75
2022-09-28T02:53:28.339Z,98.96
2022-09-28T02:54:28.362Z,98.85
2022-09-28T02:55:28.331Z,98.75
2022-09-28T02:56:28.322Z,98.75
2022-09-28T02:57:28.313Z,98.85
2022-09-28T02:58:28.301Z,99.05
2022-09-28T02:59:28.326Z,99.05
2022-09-28T03:00:28.292Z,98.96
2022-09-28T03:01:28.284Z,99.05
2022-09-28T03:02:28.330Z,98.75
2022-09-28T03:03:28.264Z,98.85
2022-09-28T03:04:28.281Z,99.16
2022-09-28T03:05:28.249Z,98.96
2022-09-28T03:06:28.238Z,99.47
2022-09-28T03:07:28.233Z,99.16
2022-09-28T03:08:28.228Z,99.26
2022-09-28T03:09:28.253Z,99.11
2022-09-28T03:10:28.212Z,99.37
2022-09-28T03:11:28.204Z,99.16
2022-09-28T03:12:28.194Z,99.05
2022-09-28T03:13:28.189Z,98.91
2022-09-28T03:14:28.215Z,99.16
2022-09-28T03:15:28.168Z,99.47
2022-09-28T03:16:28.196Z,98.96
2022-09-28T03:17:28.163Z,99.42
2022-09-28T03:18:28.161Z,99.47
2022-09-28T03:19:28.150Z,99.42
2022-09-28T03:20:28.163Z,99.99
2022-09-28T03:21:28.126Z,99.67
2022-09-28T03:22:28.122Z,99.47
2022-09-28T03:23:28.126Z,99.47
2022-09-28T03:24:28.107Z,99.47
2022-09-28T03:25:28.143Z,99.47
2022-09-28T03:26:28.095Z,99.37
2022-09-28T03:27:28.085Z,99.47
2022-09-28T03:28:28.081Z,99.57
2022-09-28T03:29:29.666Z,99.47
2022-09-28T03:30:29.195Z,99.63
2022-09-28T03:31:28.180Z,99.98
2022-09-28T03:32:31.604Z,99.88
2022-09-28T03:33:29.731Z,99.47
2022-09-28T03:34:30.603Z,99.21
2022-09-28T03:35:29.798Z,99.57
2022-09-28T03:36:29.753Z,99.77
2022-09-28T03:37:29.758Z,99.52
2022-09-28T03:38:29.607Z,99.57
2022-09-28T03:39:31.603Z,99.21
2022-09-28T03:40:29.550Z,99.37
2022-09-28T03:41:29.343Z,99.11
2022-09-28T03:42:28.071Z,99.47
2022-09-28T03:43:29.665Z,99.88
2022-09-28T03:44:28.606Z,99.77
2022-09-28T03:45:28.190Z,99.63
2022-09-28T03:46:29.825Z,99.83
2022-09-28T03:47:28.041Z,99.05
2022-09-28T03:48:32.444Z,99.11
2022-09-28T03:49:31.106Z,99.05
2022-09-28T03:50:28.089Z,99.88
2022-09-28T03:51:28.741Z,99.57
2022-09-28T03:53:00.716Z,99.52
2022-09-28T03:53:27.893Z,99.26
2022-09-28T03:54:27.909Z,99.52
2022-09-28T03:55:27.880Z,99.67
2022-09-28T03:56:27.866Z,99.37
2022-09-28T03:57:27.865Z,99.88
2022-09-28T03:58:27.854Z,99.52
2022-09-28T03:59:27.872Z,98.91
2022-09-28T04:00:27.839Z,99.93
2022-09-28T04:01:27.865Z,98.91
2022-09-28T04:02:27.873Z,99.01
2022-09-28T04:03:27.819Z,98.80
2022-09-28T04:04:27.835Z,99.01
2022-09-28T04:05:27.802Z,99.01
2022-09-28T04:06:27.793Z,98.70
2022-09-28T04:07:30.930Z,98.91
2022-09-28T04:08:28.787Z,99.26
2022-09-28T04:09:27.807Z,99.57
2022-09-28T04:10:27.769Z,99.57
2022-09-28T04:11:34.934Z,99.57
2022-09-28T04:12:28.745Z,99.42
2022-09-28T04:13:27.734Z,99.73
2022-09-28T04:14:27.732Z,99.63
2022-09-28T04:15:27.724Z,99.32
2022-09-28T04:16:27.824Z,99.83
2022-09-28T04:17:27.709Z,99.52
2022-09-28T04:18:27.701Z,99.88
2022-09-28T04:19:27.703Z,99.67
2022-09-28T04:20:27.685Z,99.37
2022-09-28T04:21:27.702Z,99.77
2022-09-28T04:22:27.669Z,99.99
2022-09-28T04:23:27.661Z,99.99
2022-09-28T04:24:27.651Z,99.99
2022-09-28T04:25:27.645Z,99.99
2022-09-28T04:26:27.663Z,99.88
2022-09-28T04:27:27.624Z,99.99
2022-09-28T04:28:27.620Z,99.99
2022-09-28T04:29:27.618Z,99.99
2022-09-28T04:30:27.600Z,99.99
2022-09-28T04:31:27.677Z,99.99
2022-09-28T04:32:27.590Z,99.99
2022-09-28T04:33:27.585Z,99.99
2022-09-28T04:34:31.902Z,99.99
2022-09-28T04:35:28.568Z,99.99
2022-09-28T04:36:27.627Z,99.99
2022-09-28T04:37:27.563Z,99.99
2022-09-28T04:38:51.314Z,99.99
2022-09-28T04:39:29.541Z,99.99
2022-09-28T04:40:27.553Z,99.99
2022-09-28T04:41:27.554Z,99.99
2022-09-28T04:42:27.524Z,99.99
2022-09-28T04:43:27.513Z,99.99
2022-09-28T04:44:27.502Z,99.99
2022-09-28T04:45:27.554Z,99.99
2022-09-28T04:46:27.516Z,99.99
2022-09-28T04:47:27.478Z,99.99
2022-09-28T04:48:27.472Z,99.99
2022-09-28T04:49:27.463Z,99.99
2022-09-28T04:50:27.460Z,99.99
2022-09-28T04:51:27.469Z,99.99
2022-09-28T04:52:27.438Z,99.99
2022-09-28T04:53:27.434Z,99.99
2022-09-28T04:54:27.423Z,99.99
2022-09-28T04:55:27.429Z,99.99
2022-09-28T04:56:27.436Z,99.99
2022-09-28T04:57:27.406Z,99.99
2022-09-28T04:58:27.401Z,99.99
2022-09-28T04:59:27.387Z,99.99
2022-09-28T05:00:27.385Z,99.99
2022-09-28T05:01:27.489Z,99.99
2022-09-28T05:02:27.417Z,99.99
2022-09-28T05:03:27.356Z,99.99
2022-09-28T05:04:27.353Z,99.99
2022-09-28T05:05:27.343Z,99.99
2022-09-28T05:06:27.362Z,99.99
2022-09-28T05:07:27.334Z,99.99
2022-09-28T05:08:27.324Z,99.99
2022-09-28T05:09:27.311Z,99.99
2022-09-28T05:10:27.304Z,99.99
2022-09-28T05:11:27.318Z,99.99
2022-09-28T05:12:27.287Z,99.99
2022-09-28T05:13:27.281Z,99.99
2022-09-28T05:14:27.270Z,99.99
2022-09-28T05:15:27.264Z,99.99
2022-09-28T05:16:27.316Z,99.99
2022-09-28T05:17:27.248Z,99.99
2022-09-28T05:18:27.242Z,99.99
2022-09-28T05:19:27.228Z,99.99
2022-09-28T05:20:27.226Z,99.99
2022-09-28T05:21:27.243Z,99.99
2022-09-28T05:22:27.211Z,99.99
2022-09-28T05:23:27.204Z,99.99
2022-09-28T05:24:27.194Z,99.99
2022-09-28T05:25:27.187Z,99.99
2022-09-28T05:26:27.205Z,99.99
2022-09-28T05:27:27.170Z,99.99
2022-09-28T05:28:27.167Z,99.99
2022-09-28T05:29:30.152Z,99.99
2022-09-28T05:30:29.152Z,99.99
2022-09-28T05:31:27.216Z,99.99
2022-09-28T05:32:27.155Z,99.99
2022-09-28T05:33:27.127Z,99.99
2022-09-28T05:34:27.145Z,99.99
2022-09-28T05:35:27.139Z,99.99
2022-09-28T05:36:27.139Z,99.99
2022-09-28T05:37:27.106Z,99.99
2022-09-28T05:38:27.097Z,99.99
2022-09-28T05:39:27.084Z,99.99
2022-09-28T05:40:27.107Z,99.99
2022-09-28T05:41:27.094Z,99.99
2022-09-28T05:42:27.067Z,99.99
2022-09-28T05:43:27.065Z,99.99
2022-09-28T05:44:27.051Z,99.99
2022-09-28T05:45:27.090Z,99.99
2022-09-28T05:46:27.114Z,99.99
2022-09-28T05:47:27.075Z,99.99
2022-09-28T05:48:27.023Z,99.99
2022-09-28T05:49:27.008Z,99.99
2022-09-28T05:50:26.999Z,99.99
2022-09-28T05:51:27.039Z,99.99
2022-09-28T05:52:26.979Z,99.99
2022-09-28T05:53:26.968Z,99.99
2022-09-28T05:54:26.971Z,99.99
2022-09-28T05:55:27.029Z,99.99
2022-09-28T05:56:26.979Z,99.99
2022-09-28T05:57:26.945Z,99.99
2022-09-28T05:58:26.941Z,99.99
2022-09-28T05:59:26.931Z,99.99
2022-09-28T06:00:26.923Z,99.99
2022-09-28T06:01:27.094Z,99.99
2022-09-28T06:02:26.975Z,99.99
2022-09-28T06:03:26.898Z,99.99
2022-09-28T06:04:26.893Z,99.99
2022-09-28T06:05:26.899Z,99.99
2022-09-28T06:06:26.917Z,99.99
2022-09-28T06:07:26.870Z,99.99
2022-09-28T06:08:26.862Z,99.99
2022-09-28T06:09:26.845Z,99.99
2022-09-28T06:10:27.848Z,99.98
2022-09-28T06:11:26.875Z,99.98
2022-09-28T06:12:26.836Z,98.96
2022-09-28T06:13:26.822Z,98.59
2022-09-28T06:14:26.819Z,98.38
2022-09-28T06:15:26.814Z,99.10
2022-09-28T06:16:26.843Z,98.54
2022-09-28T06:17:26.818Z,98.90
2022-09-28T06:18:26.791Z,98.79
2022-09-28T06:19:26.779Z,98.85
2022-09-28T06:20:26.773Z,98.75
2022-09-28T06:21:26.783Z,98.44
2022-09-28T06:22:26.782Z,98.75
2022-09-28T06:23:26.750Z,98.44
2022-09-28T06:24:26.741Z,98.60
2022-09-28T06:25:26.741Z,98.13
2022-09-28T06:26:26.757Z,98.13
2022-09-28T06:27:26.805Z,98.24
2022-09-28T06:28:26.711Z,97.47
2022-09-28T06:29:26.714Z,96.80
2022-09-28T06:30:26.760Z,96.34
2022-09-28T06:31:26.731Z,96.75
2022-09-28T06:32:26.686Z,96.44
2022-09-28T06:33:26.674Z,96.34
2022-09-28T06:34:26.665Z,95.52
2022-09-28T06:35:26.666Z,95.62
2022-09-28T06:36:26.672Z,94.29
2022-09-28T06:37:26.652Z,94.29
2022-09-28T06:38:26.640Z,94.59
2022-09-28T06:39:26.634Z,94.39
2022-09-28T06:40:26.679Z,94.29
2022-09-28T06:41:26.650Z,94.59
2022-09-28T06:42:26.613Z,94.59
2022-09-28T06:43:28.911Z,94.18
2022-09-28T06:44:26.602Z,94.90
2022-09-28T06:45:26.590Z,95.06
2022-09-28T06:46:26.656Z,94.96
2022-09-28T06:47:26.573Z,94.90
2022-09-28T06:48:26.573Z,94.18
2022-09-28T06:49:26.557Z,94.65
2022-09-28T06:50:26.555Z,94.45
2022-09-28T06:51:26.565Z,94.14
2022-09-28T06:52:26.533Z,94.04
2022-09-28T06:53:26.531Z,93.83
2022-09-28T06:54:26.522Z,94.34
2022-09-28T06:55:26.505Z,93.21
2022-09-28T06:56:31.958Z,93.07
2022-09-28T06:57:28.492Z,92.19
2022-09-28T06:58:26.487Z,93.21
2022-09-28T06:59:26.485Z,93.21
2022-09-28T07:00:26.522Z,93.01
2022-09-28T07:01:26.541Z,93.89
2022-09-28T07:02:26.503Z,94.04
2022-09-28T07:03:26.441Z,94.34
2022-09-28T07:04:26.453Z,94.40
2022-09-28T07:05:26.433Z,94.20
2022-09-28T07:06:26.448Z,93.07
2022-09-28T07:07:26.415Z,93.21
2022-09-28T07:08:26.417Z,92.80
2022-09-28T07:09:32.621Z,91.99
2022-09-28T07:10:28.404Z,92.35
2022-09-28T07:11:26.409Z,91.99
2022-09-28T07:12:26.378Z,92.29
2022-09-28T07:13:52.850Z,92.66
2022-09-28T07:14:43.954Z,91.99
2022-09-28T07:15:28.352Z,91.33
2022-09-28T07:16:30.709Z,91.57
2022-09-28T07:17:28.403Z,91.94
2022-09-28T07:18:26.363Z,91.84
2022-09-28T07:19:26.325Z,92.25
2022-09-28T07:20:26.386Z,92.66
2022-09-28T07:21:30.241Z,92.14
2022-09-28T07:22:40.438Z,91.94
2022-09-28T07:23:28.310Z,92.86
2022-09-28T07:24:26.290Z,92.25
2022-09-28T07:25:26.278Z,92.51
2022-09-28T07:26:26.304Z,91.28
2022-09-28T07:27:28.933Z,91.42
2022-09-28T07:28:27.261Z,91.38
2022-09-28T07:29:26.246Z,91.18
2022-09-28T07:30:26.364Z,90.97
2022-09-28T07:31:26.260Z,91.38
2022-09-28T07:32:26.286Z,91.38
2022-09-28T07:33:26.234Z,91.69
2022-09-28T07:34:26.206Z,91.49
2022-09-28T07:35:26.202Z,91.84
2022-09-28T07:36:26.214Z,92.10
2022-09-28T07:37:26.197Z,92.00
2022-09-28T07:38:26.178Z,91.28
2022-09-28T07:39:26.166Z,90.77
2022-09-28T07:40:26.272Z,91.69
2022-09-28T07:41:26.187Z,90.97
2022-09-28T07:42:26.148Z,90.46
2022-09-28T07:43:26.142Z,89.95
2022-09-28T07:44:26.140Z,90.30
2022-09-28T07:45:26.131Z,90.97
2022-09-28T07:46:26.202Z,91.18
2022-09-28T07:47:28.603Z,91.28
2022-09-28T07:48:26.102Z,90.56
2022-09-28T07:49:26.095Z,91.03
2022-09-28T07:50:26.088Z,90.93
2022-09-28T07:51:26.088Z,90.93
2022-09-28T07:52:26.098Z,91.24
2022-09-28T07:53:26.062Z,91.49
2022-09-28T07:54:26.061Z,92.27
2022-09-28T07:55:26.046Z,92.06
2022-09-28T07:56:26.035Z,91.96
2022-09-28T07:57:26.059Z,90.46
2022-09-28T07:58:26.049Z,90.62
2022-09-28T07:59:26.018Z,91.24
2022-09-28T08:00:26.013Z,90.01
2022-09-28T08:01:26.040Z,90.17
2022-09-28T08:02:26.062Z,90.69
2022-09-28T08:03:25.986Z,91.40
2022-09-28T08:04:25.972Z,89.04
2022-09-28T08:05:26.975Z,89.92
2022-09-28T08:06:25.966Z,89.72
2022-09-28T08:07:25.985Z,89.27
2022-09-28T08:08:25.957Z,88.86
2022-09-28T08:09:25.946Z,88.70
2022-09-28T08:10:25.935Z,87.32
2022-09-28T08:11:25.934Z,88.14
2022-09-28T08:12:25.950Z,87.43
2022-09-28T08:13:27.028Z,86.20
2022-09-28T08:14:26.909Z,86.51
2022-09-28T08:15:25.917Z,86.36
2022-09-28T08:16:25.945Z,86.67
2022-09-28T08:17:25.947Z,86.40
2022-09-28T08:18:25.877Z,86.16
2022-09-28T08:19:25.891Z,86.40
2022-09-28T08:20:25.865Z,86.46
2022-09-28T08:21:25.857Z,86.57
2022-09-28T08:22:25.875Z,86.46
2022-09-28T08:23:25.849Z,86.71
2022-09-28T08:24:25.832Z,86.51
2022-09-28T08:25:25.828Z,86.26
2022-09-28T08:26:25.828Z,86.16
2022-09-28T08:27:25.835Z,86.46
2022-09-28T08:28:25.810Z,87.24
2022-09-28T08:29:25.800Z,87.08
2022-09-28T08:30:25.845Z,87.35
2022-09-28T08:31:25.779Z,87.70
2022-09-28T08:32:25.797Z,87.24
2022-09-28T08:33:25.779Z,87.24
2022-09-28T08:34:25.764Z,87.29
2022-09-28T08:35:25.778Z,87.38
2022-09-28T08:36:25.749Z,88.57
2022-09-28T08:37:25.767Z,88.78
2022-09-28T08:38:25.729Z,88.17
2022-09-28T08:39:25.721Z,88.00
2022-09-28T08:40:25.802Z,88.71
2022-09-28T08:41:25.718Z,89.33
2022-09-28T08:42:25.727Z,87.70
2022-09-28T08:43:25.691Z,86.91
2022-09-28T08:44:25.694Z,88.00
2022-09-28T08:45:25.694Z,88.62
2022-09-28T08:46:27.131Z,88.20
2022-09-28T08:47:25.665Z,89.18
2022-09-28T08:48:25.650Z,88.37
2022-09-28T08:49:26.268Z,88.12
2022-09-28T08:50:26.640Z,85.53
2022-09-28T08:51:25.657Z,85.16
2022-09-28T08:52:25.625Z,85.32
2022-09-28T08:53:25.612Z,86.10
2022-09-28T08:54:25.609Z,83.75
2022-09-28T08:55:25.596Z,83.75
2022-09-28T08:56:25.622Z,83.75
2022-09-28T08:57:25.594Z,83.92
2022-09-28T08:58:25.601Z,81.87
2022-09-28T08:59:25.569Z,81.57
2022-09-28T09:00:25.563Z,80.75
2022-09-28T09:01:25.619Z,81.16
2022-09-28T09:02:25.677Z,81.67
2022-09-28T09:03:25.536Z,80.99
2022-09-28T09:04:25.530Z,81.26
2022-09-28T09:05:25.791Z,81.13
2022-09-28T09:06:25.515Z,81.13
2022-09-28T09:07:25.537Z,82.40
2022-09-28T09:08:25.501Z,82.97
2022-09-28T09:09:25.494Z,81.91
2022-09-28T09:10:25.489Z,80.58
2022-09-28T09:11:25.482Z,81.77
2022-09-28T09:12:25.500Z,80.14
2022-09-28T09:13:25.468Z,80.34
2022-09-28T09:14:25.459Z,80.30
2022-09-28T09:15:25.452Z,81.29
2022-09-28T09:16:25.472Z,80.23
2022-09-28T09:17:25.485Z,79.41
2022-09-28T09:18:25.432Z,80.29
2022-09-28T09:19:25.418Z,78.39
2022-09-28T09:20:25.439Z,77.82
2022-09-28T09:21:25.404Z,77.58
2022-09-28T09:22:25.425Z,76.97
2022-09-28T09:23:25.390Z,77.58
2022-09-28T09:24:25.381Z,79.25
2022-09-28T09:25:25.373Z,77.11
2022-09-28T09:26:26.231Z,77.75
2022-09-28T09:27:26.396Z,78.37
2022-09-28T09:28:25.377Z,79.08
2022-09-28T09:29:25.338Z,78.06
2022-09-28T09:30:28.086Z,79.69
2022-09-28T09:31:25.356Z,78.84
2022-09-28T09:32:25.347Z,80.30
2022-09-28T09:33:25.314Z,78.81
2022-09-28T09:34:25.304Z,81.77
2022-09-28T09:35:29.480Z,79.73
2022-09-28T09:36:27.286Z,79.39
2022-09-28T09:37:25.301Z,78.84
2022-09-28T09:38:25.273Z,78.00
2022-09-28T09:39:26.306Z,78.09
2022-09-28T09:40:25.288Z,77.08
2022-09-28T09:41:25.263Z,79.25
2022-09-28T09:42:25.280Z,78.13
2022-09-28T09:43:28.035Z,77.42
2022-09-28T09:44:26.241Z,78.13
2022-09-28T09:45:25.225Z,79.66
2022-09-28T09:46:25.244Z,79.66
2022-09-28T09:47:25.243Z,79.57
2022-09-28T09:48:25.200Z,79.16
2022-09-28T09:49:25.188Z,79.12
2022-09-28T09:50:25.189Z,79.69
2022-09-28T09:51:25.185Z,79.93
2022-09-28T09:52:58.829Z,79.77
2022-09-28T09:53:25.163Z,80.07
2022-09-28T09:54:25.150Z,80.79
2022-09-28T09:55:29.734Z,79.93
2022-09-28T09:56:27.139Z,80.18
2022-09-28T09:57:25.127Z,80.18
2022-09-28T09:58:25.149Z,80.79
2022-09-28T09:59:25.109Z,80.48
2022-09-28T10:00:25.107Z,80.48
2022-09-28T10:01:25.115Z,80.69
2022-09-28T10:02:25.128Z,81.20
2022-09-28T10:03:25.113Z,83.24
2022-09-28T10:04:25.077Z,82.87
2022-09-28T10:05:25.062Z,83.18
2022-09-28T10:06:25.053Z,83.18
2022-09-28T10:07:25.054Z,83.48
2022-09-28T10:08:25.069Z,84.09
2022-09-28T10:09:25.030Z,82.50
2022-09-28T10:10:25.027Z,82.70
2022-09-28T10:11:25.018Z,83.05
2022-09-28T10:12:25.008Z,82.70
2022-09-28T10:13:25.029Z,83.36
2022-09-28T10:14:24.994Z,83.05
2022-09-28T10:15:24.981Z,83.36
2022-09-28T10:16:25.037Z,83.36
2022-09-28T10:17:24.984Z,82.64
2022-09-28T10:18:24.998Z,82.89
2022-09-28T10:19:24.955Z,82.98
2022-09-28T10:20:24.947Z,83.25
2022-09-28T10:21:24.941Z,82.43
2022-09-28T10:22:24.962Z,81.82
2022-09-28T10:23:24.952Z,81.62
2022-09-28T10:24:24.932Z,82.23
2022-09-28T10:25:24.951Z,81.79
2022-09-28T10:26:25.451Z,81.10
2022-09-28T10:27:25.903Z,80.80
2022-09-28T10:28:24.931Z,81.01
2022-09-28T10:29:24.894Z,81.35
2022-09-28T10:30:24.875Z,81.86
2022-09-28T10:31:24.879Z,81.93
2022-09-28T10:32:24.860Z,82.03
2022-09-28T10:33:24.883Z,81.82
2022-09-28T10:34:24.843Z,82.84
2022-09-28T10:35:24.839Z,82.13
2022-09-28T10:36:24.833Z,81.93
2022-09-28T10:37:24.828Z,82.54
2022-09-28T10:38:24.865Z,84.01
2022-09-28T10:39:24.807Z,81.76
2022-09-28T10:40:24.857Z,83.19
2022-09-28T10:41:24.788Z,82.89
2022-09-28T10:42:24.780Z,82.95
2022-09-28T10:43:24.804Z,83.56
2022-09-28T10:44:24.762Z,83.56
2022-09-28T10:45:24.759Z,83.97
2022-09-28T10:46:24.791Z,84.58
2022-09-28T10:47:24.746Z,83.93
2022-09-28T10:48:24.766Z,84.55
2022-09-28T10:49:24.725Z,84.00
2022-09-28T10:50:24.717Z,84.98
2022-09-28T10:51:24.717Z,83.14
2022-09-28T10:52:24.796Z,82.32
2022-09-28T10:53:24.986Z,83.20
2022-09-28T10:54:25.696Z,83.06
2022-09-28T10:55:24.690Z,82.35
2022-09-28T10:56:24.675Z,82.61
2022-09-28T10:57:24.665Z,81.56
2022-09-28T10:58:24.688Z,80.70
2022-09-28T10:59:24.655Z,78.46
2022-09-28T11:00:24.661Z,78.42
2022-09-28T11:01:24.694Z,77.17
2022-09-28T11:02:24.658Z,77.78
2022-09-28T11:03:24.642Z,76.01
2022-09-28T11:04:24.614Z,76.52
2022-09-28T11:05:24.620Z,76.52
2022-09-28T11:06:24.612Z,76.21
2022-09-28T11:07:24.590Z,74.76
2022-09-28T11:08:24.610Z,74.01
2022-09-28T11:09:28.414Z,75.90
2022-09-28T11:10:26.574Z,75.56
2022-09-28T11:11:24.564Z,73.70
2022-09-28T11:12:24.562Z,72.52
2022-09-28T11:13:24.570Z,72.01
2022-09-28T11:14:25.542Z,72.72
2022-09-28T11:15:24.529Z,73.22
2022-09-28T11:16:24.574Z,71.33
2022-09-28T11:17:24.515Z,71.87
2022-09-28T11:18:24.544Z,73.23
2022-09-28T11:19:24.506Z,73.33
2022-09-28T11:20:27.343Z,74.01
2022-09-28T11:21:25.489Z,74.72
2022-09-28T11:22:24.479Z,74.72
2022-09-28T11:23:24.499Z,74.15
2022-09-28T11:24:24.737Z,76.18
2022-09-28T11:25:24.473Z,75.70
2022-09-28T11:26:24.447Z,76.11
2022-09-28T11:27:24.440Z,73.97
2022-09-28T11:28:24.479Z,72.86
2022-09-28T11:29:24.440Z,71.84
2022-09-28T11:30:24.487Z,72.48
2022-09-28T11:31:24.423Z,72.31
2022-09-28T11:32:24.407Z,70.99
2022-09-28T11:33:24.428Z,72.11
2022-09-28T11:34:31.356Z,72.14
2022-09-28T11:35:26.382Z,71.63
2022-09-28T11:36:24.464Z,71.84
2022-09-28T11:37:24.370Z,72.34
2022-09-28T11:38:24.391Z,73.74
2022-09-28T11:39:24.350Z,72.65
2022-09-28T11:40:24.408Z,74.04
2022-09-28T11:41:24.346Z,74.45
2022-09-28T11:42:24.338Z,74.18
2022-09-28T11:43:24.327Z,74.08
2022-09-28T11:44:26.164Z,73.10
2022-09-28T11:45:24.305Z,72.69
2022-09-28T11:46:24.356Z,73.50
2022-09-28T11:47:24.297Z,73.74
2022-09-28T11:48:24.298Z,72.82
2022-09-28T11:49:24.302Z,73.64
2022-09-28T11:50:24.814Z,72.82
2022-09-28T11:51:25.261Z,73.74
2022-09-28T11:52:24.253Z,73.06
2022-09-28T11:53:24.259Z,73.16
2022-09-28T11:54:24.274Z,73.10
2022-09-28T11:55:24.266Z,74.52
2022-09-28T11:56:24.227Z,75.13
2022-09-28T11:57:24.211Z,75.64
2022-09-28T11:58:24.212Z,75.07
2022-09-28T11:59:24.263Z,76.09
2022-09-28T12:00:24.192Z,76.73
2022-09-28T12:01:24.182Z,76.63
2022-09-28T12:02:24.289Z,78.02
2022-09-28T12:03:24.280Z,77.86
2022-09-28T12:04:24.194Z,78.12
2022-09-28T12:05:24.205Z,78.88
2022-09-28T12:06:24.144Z,78.37
2022-09-28T12:07:24.143Z,78.57
2022-09-28T12:08:25.168Z,78.16
2022-09-28T12:09:24.129Z,78.57
2022-09-28T12:10:24.110Z,78.77
2022-09-28T12:11:24.122Z,77.82
2022-09-28T12:12:24.108Z,77.45
2022-09-28T12:13:24.855Z,77.51
2022-09-28T12:14:24.088Z,76.73
2022-09-28T12:15:24.076Z,77.82
2022-09-28T12:16:45.703Z,78.12
2022-09-28T12:17:26.186Z,77.04
2022-09-28T12:18:24.051Z,76.32
2022-09-28T12:19:24.041Z,77.75
2022-09-28T12:20:24.051Z,76.93
2022-09-28T12:21:24.038Z,77.00
2022-09-28T12:22:24.047Z,76.90
2022-09-28T12:23:24.009Z,76.50
2022-09-28T12:24:24.004Z,76.35
2022-09-28T12:25:24.055Z,76.32
2022-09-28T12:26:23.986Z,76.66
2022-09-28T12:27:24.003Z,76.70
2022-09-28T12:28:23.965Z,77.62
2022-09-28T12:29:23.958Z,77.72
2022-09-28T12:30:23.950Z,77.41
2022-09-28T12:31:24.019Z,79.25
2022-09-28T12:32:23.960Z,79.55
2022-09-28T12:33:23.931Z,80.71
2022-09-28T12:34:23.928Z,81.09
2022-09-28T12:35:23.915Z,80.98
2022-09-28T12:36:23.910Z,80.41
2022-09-28T12:37:23.923Z,80.16
2022-09-28T12:38:23.891Z,78.41
2022-09-28T12:39:35.526Z,78.50
2022-09-28T12:40:25.924Z,79.02
2022-09-28T12:41:23.863Z,80.58
2022-09-28T12:42:23.899Z,80.79
2022-09-28T12:43:23.949Z,80.73
2022-09-28T12:44:23.842Z,80.87
2022-09-28T12:45:23.845Z,82.70
2022-09-28T12:46:23.880Z,83.18
2022-09-28T12:47:23.849Z,83.48
2022-09-28T12:48:23.831Z,83.07
2022-09-28T12:50:13.757Z,83.34
2022-09-28T12:50:46.463Z,83.22
2022-09-28T12:51:25.788Z,84.14
2022-09-28T12:52:23.782Z,84.41